PWSweather.com
Personal Weather Stations
Station Observations
SELKIRK1
Ontario, Selkirk, ON N0A 1P0

OntarioSelkirk, ON N0A 1P0

Lat: 42.8083652, Lon: -79.94971040000001

Elevation: 583

Station Type: Acurite 5 in 1

http://gavinsurf.com

Latest ConditionsUpdated 7:20:01 PM EDT Wednesday, Sep 19, 2018
Currently Today's Max Today's Min Today's Average
Temperature 68.6°F20.3°C 81.3°F27.4°C 58.7°F14.8°C 67.8°F19.9°C
Dew Point 63.9°F17.7°C 66.3°F19.1°C 58.4°F14.7°C 63.0°F17.2°C
Winds 1.2 mph E1.9 kmh E 9.2 mph -14.8 kmh - - 3.9 mph 6.3 kmh
Wind Gusts 2.3 mph3.7 kmh 10.4 mph16.7 kmh - -
Humidity 85% 99% 59% 86%
Pressure 31.84 in1078.2 mb 31.84 in1078.2 mb 31.84 in1078.2 mb -
Hour Temp Dew Point Humidity Winds Wind Gusts Pressure Precip Precip Rate Daily Precip Total
07:20 PM 68.6°F20.3°C 63.9°F17.7°C 85% 1.2 mph E1.9 kmh E 2.3 mph3.7 kmh 31.84 in1078.2 mb - 0.00 in0.0 mm 0.00 in0.0 mm
07:15 PM 68.9°F20.5°C 64.2°F17.9°C 85% Calm Calm -- 31.84 in1078.2 mb - 0.00 in0.0 mm 0.00 in0.0 mm
07:10 PM 69.1°F20.6°C 64.0°F17.8°C 84% 1.2 mph S1.9 kmh S 2.3 mph3.7 kmh 31.84 in1078.2 mb - 0.00 in0.0 mm 0.00 in0.0 mm
07:00 PM 70.0°F21.1°C 64.6°F18.1°C 83% Calm Calm 1.2 mph1.9 kmh 31.84 in1078.2 mb - 0.00 in0.0 mm 0.00 in0.0 mm
06:55 PM 70.2°F21.2°C 64.8°F18.2°C 83% 1.2 mph SSE1.9 kmh SSE 2.3 mph3.7 kmh 31.84 in1078.2 mb - 0.00 in0.0 mm 0.00 in0.0 mm
06:50 PM 70.4°F21.3°C 64.6°F18.1°C 82% 2.3 mph SSW3.7 kmh SSW 4.6 mph7.4 kmh 31.84 in1078.2 mb - 0.00 in0.0 mm 0.00 in0.0 mm
06:45 PM 70.7°F21.5°C 64.6°F18.1°C 81% 2.3 mph SE3.7 kmh SE 3.5 mph5.6 kmh 31.84 in1078.2 mb - 0.00 in0.0 mm 0.00 in0.0 mm
06:40 PM 71.4°F21.9°C 64.5°F18.1°C 79% 2.3 mph S3.7 kmh S 3.5 mph5.6 kmh 31.84 in1078.2 mb - 0.00 in0.0 mm 0.00 in0.0 mm
06:35 PM 71.8°F22.1°C 64.6°F18.1°C 78% 1.2 mph S1.9 kmh S 2.3 mph3.7 kmh 31.84 in1078.2 mb - 0.00 in0.0 mm 0.00 in0.0 mm
06:30 PM 72.9°F22.7°C 65.3°F18.5°C 77% 2.3 mph SE3.7 kmh SE 2.3 mph3.7 kmh 31.84 in1078.2 mb - 0.00 in0.0 mm 0.00 in0.0 mm
06:25 PM 73.4°F23.0°C 65.3°F18.5°C 76% 1.2 mph SE1.9 kmh SE 2.3 mph3.7 kmh 31.84 in1078.2 mb - 0.00 in0.0 mm 0.00 in0.0 mm
06:20 PM 74.0°F23.3°C 65.2°F18.4°C 74% Calm Calm 1.2 mph1.9 kmh 31.84 in1078.2 mb - 0.00 in0.0 mm 0.00 in0.0 mm
06:15 PM 74.3°F23.5°C 65.5°F18.6°C 74% 2.3 mph SE3.7 kmh SE 2.3 mph3.7 kmh 31.84 in1078.2 mb - 0.00 in0.0 mm 0.00 in0.0 mm
06:10 PM 74.4°F23.6°C 65.1°F18.4°C 73% 2.3 mph ESE3.7 kmh ESE 2.3 mph3.7 kmh 31.84 in1078.2 mb - 0.00 in0.0 mm 0.00 in0.0 mm
06:00 PM 74.3°F23.5°C 65.5°F18.6°C 74% 2.3 mph S3.7 kmh S 2.3 mph3.7 kmh 31.84 in1078.2 mb - 0.00 in0.0 mm 0.00 in0.0 mm
05:55 PM 74.1°F23.4°C 65.3°F18.5°C 74% 3.5 mph S5.6 kmh S 4.6 mph7.4 kmh 31.84 in1078.2 mb - 0.00 in0.0 mm 0.00 in0.0 mm
05:50 PM 74.3°F23.5°C 65.5°F18.6°C 74% 1.2 mph S1.9 kmh S 2.3 mph3.7 kmh 31.84 in1078.2 mb - 0.00 in0.0 mm 0.00 in0.0 mm
05:45 PM 73.8°F23.2°C 65.3°F18.5°C 75% 2.3 mph SE3.7 kmh SE 4.6 mph7.4 kmh 31.84 in1078.2 mb - 0.00 in0.0 mm 0.00 in0.0 mm
05:40 PM 72.8°F22.7°C 64.8°F18.2°C 76% 3.5 mph SW5.6 kmh SW 5.8 mph9.3 kmh 31.84 in1078.2 mb - 0.00 in0.0 mm 0.00 in0.0 mm
05:35 PM 72.4°F22.4°C 64.4°F18.0°C 76% 3.5 mph S5.6 kmh S 4.6 mph7.4 kmh 31.84 in1078.2 mb - 0.00 in0.0 mm 0.00 in0.0 mm
05:30 PM 72.8°F22.7°C 64.4°F18.0°C 75% 4.6 mph S7.4 kmh S 6.9 mph11.1 kmh 31.84 in1078.2 mb - 0.00 in0.0 mm 0.00 in0.0 mm
05:25 PM 72.3°F22.4°C 64.7°F18.2°C 77% 4.6 mph S7.4 kmh S 5.8 mph9.3 kmh 31.84 in1078.2 mb - 0.00 in0.0 mm 0.00 in0.0 mm
05:20 PM 72.4°F22.4°C 64.8°F18.2°C 77% 3.5 mph SSW5.6 kmh SSW 4.6 mph7.4 kmh 31.84 in1078.2 mb - 0.00 in0.0 mm 0.00 in0.0 mm
05:15 PM 73.3°F22.9°C 65.3°F18.5°C 76% 5.8 mph SW9.3 kmh SW 6.9 mph11.1 kmh 31.84 in1078.2 mb - 0.00 in0.0 mm 0.00 in0.0 mm
05:10 PM 73.1°F22.8°C 65.1°F18.4°C 76% 4.6 mph S7.4 kmh S 5.8 mph9.3 kmh 31.84 in1078.2 mb - 0.00 in0.0 mm 0.00 in0.0 mm
05:00 PM 73.6°F23.1°C 65.2°F18.4°C 75% 5.8 mph SSE9.3 kmh SSE 5.8 mph9.3 kmh 31.84 in1078.2 mb - 0.00 in0.0 mm 0.00 in0.0 mm
04:55 PM 74.9°F23.8°C 65.6°F18.7°C 73% 5.8 mph SSW9.3 kmh SSW 8.1 mph13.0 kmh 31.84 in1078.2 mb - 0.00 in0.0 mm 0.00 in0.0 mm
04:50 PM 75.0°F23.9°C 65.4°F18.6°C 72% 4.6 mph S7.4 kmh S 5.8 mph9.3 kmh 31.84 in1078.2 mb - 0.00 in0.0 mm 0.00 in0.0 mm
04:45 PM 74.8°F23.8°C 65.2°F18.4°C 72% 4.6 mph S7.4 kmh S 5.8 mph9.3 kmh 31.84 in1078.2 mb - 0.00 in0.0 mm 0.00 in0.0 mm
04:40 PM 74.3°F23.5°C 65.1°F18.4°C 73% 6.9 mph SSW11.1 kmh SSW 5.8 mph9.3 kmh 31.84 in1078.2 mb - 0.00 in0.0 mm 0.00 in0.0 mm
04:35 PM 74.3°F23.5°C 64.7°F18.2°C 72% 4.6 mph SSW7.4 kmh SSW 5.8 mph9.3 kmh 31.84 in1078.2 mb - 0.00 in0.0 mm 0.00 in0.0 mm
04:30 PM 74.8°F23.8°C 64.8°F18.2°C 71% 5.8 mph SSW9.3 kmh SSW 6.9 mph11.1 kmh 31.84 in1078.2 mb - 0.00 in0.0 mm 0.00 in0.0 mm
04:25 PM 75.9°F24.4°C 65.9°F18.8°C 71% 4.6 mph S7.4 kmh S 5.8 mph9.3 kmh 31.84 in1078.2 mb - 0.00 in0.0 mm 0.00 in0.0 mm
04:20 PM 76.0°F24.4°C 65.5°F18.6°C 70% 4.6 mph S7.4 kmh S 5.8 mph9.3 kmh 31.84 in1078.2 mb - 0.00 in0.0 mm 0.00 in0.0 mm
04:15 PM 78.9°F26.1°C 66.2°F19.0°C 65% 4.6 mph SSW7.4 kmh SSW 5.8 mph9.3 kmh 31.84 in1078.2 mb - 0.00 in0.0 mm 0.00 in0.0 mm
04:10 PM 76.5°F24.7°C 65.6°F18.7°C 69% 3.5 mph S5.6 kmh S 4.6 mph7.4 kmh 31.84 in1078.2 mb - 0.00 in0.0 mm 0.00 in0.0 mm
04:00 PM 80.1°F26.7°C 66.3°F19.1°C 63% 4.6 mph SSW7.4 kmh SSW 5.8 mph9.3 kmh 31.84 in1078.2 mb - 0.00 in0.0 mm 0.00 in0.0 mm
03:55 PM 78.0°F25.6°C 65.7°F18.7°C 66% 3.5 mph SW5.6 kmh SW 3.5 mph5.6 kmh 31.84 in1078.2 mb - 0.00 in0.0 mm 0.00 in0.0 mm
03:50 PM 75.5°F24.2°C 65.4°F18.6°C 71% 4.6 mph S7.4 kmh S 4.6 mph7.4 kmh 31.84 in1078.2 mb - 0.00 in0.0 mm 0.00 in0.0 mm
03:45 PM 75.7°F24.3°C 65.2°F18.4°C 70% 4.6 mph S7.4 kmh S 5.8 mph9.3 kmh 31.84 in1078.2 mb - 0.00 in0.0 mm 0.00 in0.0 mm
03:40 PM 75.9°F24.4°C 65.0°F18.3°C 69% 4.6 mph SSW7.4 kmh SSW 5.8 mph9.3 kmh 31.84 in1078.2 mb - 0.00 in0.0 mm 0.00 in0.0 mm
03:35 PM 76.4°F24.7°C 65.0°F18.3°C 68% 4.6 mph SSW7.4 kmh SSW 4.6 mph7.4 kmh 31.84 in1078.2 mb - 0.00 in0.0 mm 0.00 in0.0 mm
03:30 PM 76.7°F24.8°C 66.2°F19.0°C 70% 3.5 mph SSE5.6 kmh SSE 5.8 mph9.3 kmh 31.84 in1078.2 mb - 0.00 in0.0 mm 0.00 in0.0 mm
03:25 PM 75.4°F24.1°C 65.7°F18.7°C 72% 3.5 mph S5.6 kmh S 4.6 mph7.4 kmh 31.84 in1078.2 mb - 0.00 in0.0 mm 0.00 in0.0 mm
03:20 PM 76.1°F24.5°C 65.6°F18.7°C 70% 3.5 mph SSE5.6 kmh SSE 5.8 mph9.3 kmh 31.84 in1078.2 mb - 0.00 in0.0 mm 0.00 in0.0 mm
03:15 PM 74.8°F23.8°C 65.5°F18.6°C 73% 3.5 mph E5.6 kmh E 5.8 mph9.3 kmh 31.84 in1078.2 mb - 0.00 in0.0 mm 0.00 in0.0 mm
03:10 PM 74.7°F23.7°C 65.5°F18.6°C 73% 4.6 mph S7.4 kmh S 5.8 mph9.3 kmh 31.84 in1078.2 mb - 0.00 in0.0 mm 0.00 in0.0 mm
03:00 PM 74.4°F23.6°C 65.6°F18.7°C 74% 4.6 mph S7.4 kmh S 5.8 mph9.3 kmh 31.84 in1078.2 mb - 0.00 in0.0 mm 0.00 in0.0 mm
02:55 PM 74.6°F23.7°C 65.3°F18.5°C 73% 4.6 mph SE7.4 kmh SE 5.8 mph9.3 kmh 31.84 in1078.2 mb - 0.00 in0.0 mm 0.00 in0.0 mm
02:50 PM 74.7°F23.7°C 65.5°F18.6°C 73% 4.6 mph SE7.4 kmh SE 5.8 mph9.3 kmh 31.84 in1078.2 mb - 0.00 in0.0 mm 0.00 in0.0 mm
02:45 PM 74.0°F23.3°C 65.2°F18.4°C 74% 4.6 mph S7.4 kmh S 5.8 mph9.3 kmh 31.84 in1078.2 mb - 0.00 in0.0 mm 0.00 in0.0 mm
02:40 PM 75.8°F24.3°C 65.7°F18.7°C 71% 4.6 mph SW7.4 kmh SW 6.9 mph11.1 kmh 31.84 in1078.2 mb - 0.00 in0.0 mm 0.00 in0.0 mm
02:35 PM 75.9°F24.4°C 65.4°F18.6°C 70% 4.6 mph S7.4 kmh S 5.8 mph9.3 kmh 31.84 in1078.2 mb - 0.00 in0.0 mm 0.00 in0.0 mm
02:30 PM 75.6°F24.2°C 65.1°F18.4°C 70% 3.5 mph SSE5.6 kmh SSE 5.8 mph9.3 kmh 31.84 in1078.2 mb - 0.00 in0.0 mm 0.00 in0.0 mm
02:25 PM 76.2°F24.6°C 65.7°F18.7°C 70% 3.5 mph SSE5.6 kmh SSE 4.6 mph7.4 kmh 31.84 in1078.2 mb - 0.00 in0.0 mm 0.00 in0.0 mm
02:20 PM 74.7°F23.7°C 64.7°F18.2°C 71% 4.6 mph S7.4 kmh S 4.6 mph7.4 kmh 31.84 in1078.2 mb - 0.00 in0.0 mm 0.00 in0.0 mm
02:15 PM 77.4°F25.2°C 65.5°F18.6°C 67% 2.3 mph S3.7 kmh S 3.5 mph5.6 kmh 31.84 in1078.2 mb - 0.00 in0.0 mm 0.00 in0.0 mm
02:10 PM 78.0°F25.6°C 65.3°F18.5°C 65% 2.3 mph SSE3.7 kmh SSE 3.5 mph5.6 kmh 31.84 in1078.2 mb - 0.00 in0.0 mm 0.00 in0.0 mm
02:00 PM 77.2°F25.1°C 65.8°F18.8°C 68% 3.5 mph SE5.6 kmh SE 3.5 mph5.6 kmh 31.84 in1078.2 mb - 0.00 in0.0 mm 0.00 in0.0 mm
01:55 PM 75.7°F24.3°C 65.2°F18.4°C 70% 2.3 mph SSE3.7 kmh SSE 3.5 mph5.6 kmh 31.84 in1078.2 mb - 0.00 in0.0 mm 0.00 in0.0 mm
01:50 PM 75.6°F24.2°C 65.2°F18.4°C 70% 3.5 mph S5.6 kmh S 4.6 mph7.4 kmh 31.84 in1078.2 mb - 0.00 in0.0 mm 0.00 in0.0 mm
01:45 PM 75.4°F24.1°C 64.9°F18.3°C 70% 3.5 mph S5.6 kmh S 4.6 mph7.4 kmh 31.84 in1078.2 mb - 0.00 in0.0 mm 0.00 in0.0 mm
01:40 PM 75.5°F24.2°C 65.4°F18.6°C 71% 3.5 mph SE5.6 kmh SE 4.6 mph7.4 kmh 31.84 in1078.2 mb - 0.00 in0.0 mm 0.00 in0.0 mm
01:35 PM 74.5°F23.6°C 64.1°F17.8°C 70% 4.6 mph SSW7.4 kmh SSW 5.8 mph9.3 kmh 31.84 in1078.2 mb - 0.00 in0.0 mm 0.00 in0.0 mm
01:30 PM 78.2°F25.7°C 65.5°F18.6°C 65% 3.5 mph S5.6 kmh S 5.8 mph9.3 kmh 31.84 in1078.2 mb - 0.00 in0.0 mm 0.00 in0.0 mm
01:25 PM 81.3°F27.4°C 65.6°F18.7°C 59% 2.3 mph WSW3.7 kmh WSW 3.5 mph5.6 kmh 31.84 in1078.2 mb - 0.00 in0.0 mm 0.00 in0.0 mm
01:20 PM 78.2°F25.7°C 65.1°F18.4°C 64% 3.5 mph SSW5.6 kmh SSW 3.5 mph5.6 kmh 31.84 in1078.2 mb - 0.00 in0.0 mm 0.00 in0.0 mm
01:15 PM 76.1°F24.5°C 65.6°F18.7°C 70% 3.5 mph SE5.6 kmh SE 3.5 mph5.6 kmh 31.84 in1078.2 mb - 0.00 in0.0 mm 0.00 in0.0 mm
01:10 PM 76.8°F24.9°C 65.0°F18.3°C 67% 2.3 mph SSE3.7 kmh SSE 3.5 mph5.6 kmh 31.84 in1078.2 mb - 0.00 in0.0 mm 0.00 in0.0 mm
01:00 PM 77.9°F25.5°C 64.3°F17.9°C 63% 4.6 mph N7.4 kmh N 5.8 mph9.3 kmh 31.84 in1078.2 mb - 0.00 in0.0 mm 0.00 in0.0 mm
12:55 PM 77.5°F25.3°C 63.9°F17.7°C 63% 2.3 mph SE3.7 kmh SE 3.5 mph5.6 kmh 31.84 in1078.2 mb - 0.00 in0.0 mm 0.00 in0.0 mm
12:50 PM 76.9°F24.9°C 65.5°F18.6°C 68% Calm Calm -- 31.84 in1078.2 mb - 0.00 in0.0 mm 0.00 in0.0 mm
12:45 PM 75.7°F24.3°C 65.2°F18.4°C 70% Calm Calm -- 31.84 in1078.2 mb - 0.00 in0.0 mm 0.00 in0.0 mm
12:40 PM 75.4°F24.1°C 63.7°F17.6°C 67% 3.5 mph N5.6 kmh N 3.5 mph5.6 kmh 31.84 in1078.2 mb - 0.00 in0.0 mm 0.00 in0.0 mm
12:35 PM 75.6°F24.2°C 63.9°F17.7°C 67% 3.5 mph N5.6 kmh N 2.3 mph3.7 kmh 31.84 in1078.2 mb - 0.00 in0.0 mm 0.00 in0.0 mm
12:30 PM 75.6°F24.2°C 65.1°F18.4°C 70% Calm Calm 2.3 mph3.7 kmh 31.84 in1078.2 mb - 0.00 in0.0 mm 0.00 in0.0 mm
12:25 PM 75.6°F24.2°C 63.9°F17.7°C 67% 2.3 mph SE3.7 kmh SE 2.3 mph3.7 kmh 31.84 in1078.2 mb - 0.00 in0.0 mm 0.00 in0.0 mm
12:20 PM 76.3°F24.6°C 65.0°F18.3°C 68% 1.2 mph E1.9 kmh E 2.3 mph3.7 kmh 31.84 in1078.2 mb - 0.00 in0.0 mm 0.00 in0.0 mm
12:15 PM 76.9°F24.9°C 65.9°F18.8°C 69% 2.3 mph NE3.7 kmh NE 3.5 mph5.6 kmh 31.84 in1078.2 mb - 0.00 in0.0 mm 0.00 in0.0 mm
12:10 PM 76.8°F24.9°C 65.4°F18.6°C 68% 1.2 mph E1.9 kmh E 1.2 mph1.9 kmh 31.84 in1078.2 mb - 0.00 in0.0 mm 0.00 in0.0 mm
12:00 PM 75.0°F23.9°C 65.4°F18.6°C 72% 1.2 mph E1.9 kmh E 1.2 mph1.9 kmh 31.84 in1078.2 mb - 0.00 in0.0 mm 0.00 in0.0 mm
11:55 AM 73.8°F23.2°C 64.6°F18.1°C 73% 1.2 mph ESE1.9 kmh ESE 2.3 mph3.7 kmh 31.84 in1078.2 mb - 0.00 in0.0 mm 0.00 in0.0 mm
11:50 AM 74.6°F23.7°C 65.0°F18.3°C 72% 2.3 mph E3.7 kmh E 2.3 mph3.7 kmh 31.84 in1078.2 mb - 0.00 in0.0 mm 0.00 in0.0 mm
11:45 AM 75.6°F24.2°C 65.9°F18.8°C 72% 2.3 mph ENE3.7 kmh ENE 2.3 mph3.7 kmh 31.84 in1078.2 mb - 0.00 in0.0 mm 0.00 in0.0 mm
11:40 AM 73.7°F23.2°C 66.0°F18.9°C 77% 2.3 mph E3.7 kmh E 3.5 mph5.6 kmh 31.84 in1078.2 mb - 0.00 in0.0 mm 0.00 in0.0 mm
11:35 AM 71.7°F22.1°C 64.5°F18.1°C 78% 2.3 mph ESE3.7 kmh ESE 2.3 mph3.7 kmh 31.84 in1078.2 mb - 0.00 in0.0 mm 0.00 in0.0 mm
11:30 AM 70.8°F21.6°C 63.6°F17.6°C 78% 1.2 mph E1.9 kmh E 2.3 mph3.7 kmh 31.84 in1078.2 mb - 0.00 in0.0 mm 0.00 in0.0 mm
11:25 AM 71.2°F21.8°C 64.0°F17.8°C 78% 3.5 mph NE5.6 kmh NE 5.8 mph9.3 kmh 31.84 in1078.2 mb - 0.00 in0.0 mm 0.00 in0.0 mm
11:20 AM 71.9°F22.2°C 64.3°F17.9°C 77% 3.5 mph NNW5.6 kmh NNW 6.9 mph11.1 kmh 31.84 in1078.2 mb - 0.00 in0.0 mm 0.00 in0.0 mm
11:15 AM 72.4°F22.4°C 64.4°F18.0°C 76% 3.5 mph N5.6 kmh N 2.3 mph3.7 kmh 31.84 in1078.2 mb - 0.00 in0.0 mm 0.00 in0.0 mm
11:10 AM 73.4°F23.0°C 65.0°F18.3°C 75% 4.6 mph NNE7.4 kmh NNE 5.8 mph9.3 kmh 31.84 in1078.2 mb - 0.00 in0.0 mm 0.00 in0.0 mm
11:00 AM 72.5°F22.5°C 64.5°F18.1°C 76% 2.3 mph ENE3.7 kmh ENE 2.3 mph3.7 kmh 31.84 in1078.2 mb - 0.00 in0.0 mm 0.00 in0.0 mm
10:55 AM 72.7°F22.6°C 64.7°F18.2°C 76% 2.3 mph ENE3.7 kmh ENE 3.5 mph5.6 kmh 31.84 in1078.2 mb - 0.00 in0.0 mm 0.00 in0.0 mm
10:50 AM 71.9°F22.2°C 64.6°F18.1°C 78% 2.3 mph E3.7 kmh E 2.3 mph3.7 kmh 31.84 in1078.2 mb - 0.00 in0.0 mm 0.00 in0.0 mm
10:45 AM 71.9°F22.2°C 64.6°F18.1°C 78% 5.8 mph NW9.3 kmh NW 8.1 mph13.0 kmh 31.84 in1078.2 mb - 0.00 in0.0 mm 0.00 in0.0 mm
10:40 AM 71.0°F21.7°C 64.5°F18.1°C 80% 3.5 mph NNE5.6 kmh NNE 4.6 mph7.4 kmh 31.84 in1078.2 mb - 0.00 in0.0 mm 0.00 in0.0 mm
10:35 AM 70.5°F21.4°C 64.0°F17.8°C 80% 6.9 mph NNE11.1 kmh NNE 9.2 mph14.8 kmh 31.84 in1078.2 mb - 0.00 in0.0 mm 0.00 in0.0 mm
10:30 AM 71.6°F22.0°C 64.4°F18.0°C 78% 3.5 mph N5.6 kmh N 5.8 mph9.3 kmh 31.84 in1078.2 mb - 0.00 in0.0 mm 0.00 in0.0 mm
10:25 AM 71.0°F21.7°C 64.2°F17.9°C 79% 2.3 mph E3.7 kmh E 2.3 mph3.7 kmh 31.84 in1078.2 mb - 0.00 in0.0 mm 0.00 in0.0 mm
10:20 AM 71.1°F21.7°C 64.2°F17.9°C 79% 4.6 mph NNE7.4 kmh NNE 4.6 mph7.4 kmh 31.84 in1078.2 mb - 0.00 in0.0 mm 0.00 in0.0 mm
10:15 AM 71.3°F21.8°C 64.8°F18.2°C 80% 2.3 mph ENE3.7 kmh ENE 4.6 mph7.4 kmh 31.84 in1078.2 mb - 0.00 in0.0 mm 0.00 in0.0 mm
10:10 AM 70.6°F21.4°C 64.5°F18.1°C 81% 4.6 mph NE7.4 kmh NE 5.8 mph9.3 kmh 31.84 in1078.2 mb - 0.00 in0.0 mm 0.00 in0.0 mm
10:00 AM 69.7°F20.9°C 63.9°F17.7°C 82% 2.3 mph ENE3.7 kmh ENE 3.5 mph5.6 kmh 31.84 in1078.2 mb - 0.00 in0.0 mm 0.00 in0.0 mm
09:55 AM 68.6°F20.3°C 63.6°F17.6°C 84% 2.3 mph ENE3.7 kmh ENE 2.3 mph3.7 kmh 31.84 in1078.2 mb - 0.00 in0.0 mm 0.00 in0.0 mm
09:50 AM 68.1°F20.1°C 63.8°F17.7°C 86% 2.3 mph NE3.7 kmh NE 2.3 mph3.7 kmh 31.84 in1078.2 mb - 0.00 in0.0 mm 0.00 in0.0 mm
09:45 AM 67.3°F19.6°C 63.3°F17.4°C 87% 4.6 mph NNE7.4 kmh NNE 8.1 mph13.0 kmh 31.84 in1078.2 mb - 0.00 in0.0 mm 0.00 in0.0 mm
09:40 AM 66.4°F19.1°C 62.7°F17.1°C 88% 5.8 mph NE9.3 kmh NE 6.9 mph11.1 kmh 31.84 in1078.2 mb - 0.00 in0.0 mm 0.00 in0.0 mm
09:35 AM 66.0°F18.9°C 63.0°F17.2°C 90% 5.8 mph N9.3 kmh N 6.9 mph11.1 kmh 31.84 in1078.2 mb - 0.00 in0.0 mm 0.00 in0.0 mm
09:30 AM 66.0°F18.9°C 63.0°F17.2°C 90% 6.9 mph N11.1 kmh N 8.1 mph13.0 kmh 31.84 in1078.2 mb - 0.00 in0.0 mm 0.00 in0.0 mm
09:25 AM 65.5°F18.6°C 62.8°F17.1°C 91% 5.8 mph N9.3 kmh N 8.1 mph13.0 kmh 31.84 in1078.2 mb - 0.00 in0.0 mm 0.00 in0.0 mm
09:20 AM 65.0°F18.3°C 62.6°F17.0°C 92% 9.2 mph NNE14.8 kmh NNE 10.4 mph16.7 kmh 31.84 in1078.2 mb - 0.00 in0.0 mm 0.00 in0.0 mm
09:15 AM 64.4°F18.0°C 62.3°F16.8°C 93% 8.1 mph N13.0 kmh N 8.1 mph13.0 kmh 31.84 in1078.2 mb - 0.00 in0.0 mm 0.00 in0.0 mm
09:10 AM 64.4°F18.0°C 62.3°F16.8°C 93% 8.1 mph N13.0 kmh N 8.1 mph13.0 kmh 31.84 in1078.2 mb - 0.00 in0.0 mm 0.00 in0.0 mm
09:00 AM 64.1°F17.8°C 62.3°F16.8°C 94% 8.1 mph N13.0 kmh N 9.2 mph14.8 kmh 31.84 in1078.2 mb - 0.00 in0.0 mm 0.00 in0.0 mm
08:55 AM 64.0°F17.8°C 62.2°F16.8°C 94% 6.9 mph NNE11.1 kmh NNE 10.4 mph16.7 kmh 31.84 in1078.2 mb - 0.00 in0.0 mm 0.00 in0.0 mm
08:50 AM 63.6°F17.6°C 62.1°F16.7°C 95% 5.8 mph N9.3 kmh N 5.8 mph9.3 kmh 31.84 in1078.2 mb - 0.00 in0.0 mm 0.00 in0.0 mm
08:45 AM 63.2°F17.3°C 62.0°F16.7°C 96% 5.8 mph NNE9.3 kmh NNE 6.9 mph11.1 kmh 31.84 in1078.2 mb - 0.00 in0.0 mm 0.00 in0.0 mm
08:40 AM 62.6°F17.0°C 61.4°F16.3°C 96% 5.8 mph N9.3 kmh N 5.8 mph9.3 kmh 31.84 in1078.2 mb - 0.00 in0.0 mm 0.00 in0.0 mm
08:35 AM 61.9°F16.6°C 61.4°F16.3°C 98% 5.8 mph N9.3 kmh N 5.8 mph9.3 kmh 31.84 in1078.2 mb - 0.00 in0.0 mm 0.00 in0.0 mm
08:30 AM 61.4°F16.3°C 61.1°F16.2°C 99% 5.8 mph NNE9.3 kmh NNE 5.8 mph9.3 kmh 31.84 in1078.2 mb - 0.00 in0.0 mm 0.00 in0.0 mm
08:25 AM 60.5°F15.8°C 60.2°F15.7°C 99% 5.8 mph N9.3 kmh N 6.9 mph11.1 kmh 31.84 in1078.2 mb - 0.00 in0.0 mm 0.00 in0.0 mm
08:20 AM 60.1°F15.6°C 59.8°F15.4°C 99% 4.6 mph N7.4 kmh N 4.6 mph7.4 kmh 31.84 in1078.2 mb - 0.00 in0.0 mm 0.00 in0.0 mm
08:15 AM 59.7°F15.4°C 59.4°F15.2°C 99% 5.8 mph NE9.3 kmh NE 5.8 mph9.3 kmh 31.84 in1078.2 mb - 0.00 in0.0 mm 0.00 in0.0 mm
08:10 AM 59.6°F15.3°C 59.3°F15.2°C 99% 5.8 mph NNE9.3 kmh NNE 6.9 mph11.1 kmh 31.84 in1078.2 mb - 0.00 in0.0 mm 0.00 in0.0 mm
08:00 AM 59.2°F15.1°C 58.9°F14.9°C 99% 4.6 mph NNE7.4 kmh NNE 5.8 mph9.3 kmh 31.84 in1078.2 mb - 0.00 in0.0 mm 0.00 in0.0 mm
07:55 AM 59.0°F15.0°C 58.7°F14.8°C 99% 3.5 mph N5.6 kmh N 4.6 mph7.4 kmh 31.84 in1078.2 mb - 0.00 in0.0 mm 0.00 in0.0 mm
07:50 AM 59.0°F15.0°C 58.7°F14.8°C 99% 5.8 mph N9.3 kmh N 5.8 mph9.3 kmh 31.84 in1078.2 mb - 0.00 in0.0 mm 0.00 in0.0 mm
07:45 AM 58.8°F14.9°C 58.5°F14.7°C 99% 5.8 mph N9.3 kmh N 5.8 mph9.3 kmh 31.84 in1078.2 mb - 0.00 in0.0 mm 0.00 in0.0 mm
07:40 AM 58.8°F14.9°C 58.5°F14.7°C 99% 5.8 mph NE9.3 kmh NE 5.8 mph9.3 kmh 31.84 in1078.2 mb - 0.00 in0.0 mm 0.00 in0.0 mm
07:35 AM 58.7°F14.8°C 58.4°F14.7°C 99% 6.9 mph N11.1 kmh N 6.9 mph11.1 kmh 31.84 in1078.2 mb - 0.00 in0.0 mm 0.00 in0.0 mm
07:30 AM 58.7°F14.8°C 58.4°F14.7°C 99% 4.6 mph NE7.4 kmh NE 5.8 mph9.3 kmh 31.84 in1078.2 mb - 0.00 in0.0 mm 0.00 in0.0 mm
07:25 AM 58.7°F14.8°C 58.4°F14.7°C 99% 5.8 mph N9.3 kmh N 6.9 mph11.1 kmh 31.84 in1078.2 mb - 0.00 in0.0 mm 0.00 in0.0 mm
07:20 AM 58.7°F14.8°C 58.4°F14.7°C 99% 6.9 mph N11.1 kmh N 6.9 mph11.1 kmh 31.84 in1078.2 mb - 0.00 in0.0 mm 0.00 in0.0 mm
07:15 AM 58.7°F14.8°C 58.4°F14.7°C 99% 5.8 mph NNE9.3 kmh NNE 6.9 mph11.1 kmh 31.84 in1078.2 mb - 0.00 in0.0 mm 0.00 in0.0 mm
07:10 AM 58.8°F14.9°C 58.5°F14.7°C 99% 5.8 mph N9.3 kmh N 5.8 mph9.3 kmh 31.84 in1078.2 mb - 0.00 in0.0 mm 0.00 in0.0 mm
07:00 AM 59.0°F15.0°C 58.7°F14.8°C 99% 5.8 mph N9.3 kmh N 5.8 mph9.3 kmh 31.84 in1078.2 mb - 0.00 in0.0 mm 0.00 in0.0 mm
06:55 AM 59.3°F15.2°C 59.1°F15.1°C 99% 5.8 mph N9.3 kmh N 5.8 mph9.3 kmh 31.84 in1078.2 mb - 0.00 in0.0 mm 0.00 in0.0 mm
06:50 AM 59.6°F15.3°C 59.3°F15.2°C 99% 6.9 mph NNE11.1 kmh NNE 6.9 mph11.1 kmh 31.84 in1078.2 mb - 0.00 in0.0 mm 0.00 in0.0 mm
06:45 AM 59.7°F15.4°C 59.4°F15.2°C 99% 5.8 mph NNE9.3 kmh NNE 5.8 mph9.3 kmh 31.84 in1078.2 mb - 0.00 in0.0 mm 0.00 in0.0 mm
06:40 AM 59.9°F15.5°C 59.6°F15.3°C 99% 6.9 mph NNE11.1 kmh NNE 8.1 mph13.0 kmh 31.84 in1078.2 mb - 0.00 in0.0 mm 0.00 in0.0 mm
06:35 AM 60.1°F15.6°C 59.8°F15.4°C 99% 6.9 mph N11.1 kmh N 6.9 mph11.1 kmh 31.84 in1078.2 mb - 0.00 in0.0 mm 0.00 in0.0 mm
06:30 AM 60.3°F15.7°C 60.0°F15.6°C 99% 6.9 mph NNE11.1 kmh NNE 6.9 mph11.1 kmh 31.84 in1078.2 mb - 0.00 in0.0 mm 0.00 in0.0 mm
06:25 AM 60.6°F15.9°C 60.3°F15.7°C 99% 5.8 mph NNE9.3 kmh NNE 5.8 mph9.3 kmh 31.84 in1078.2 mb - 0.00 in0.0 mm 0.00 in0.0 mm
06:20 AM 60.6°F15.9°C 60.3°F15.7°C 99% 5.8 mph NNE9.3 kmh NNE 5.8 mph9.3 kmh 31.84 in1078.2 mb - 0.00 in0.0 mm 0.00 in0.0 mm
06:15 AM 60.6°F15.9°C 60.3°F15.7°C 99% 5.8 mph NNE9.3 kmh NNE 6.9 mph11.1 kmh 31.84 in1078.2 mb - 0.00 in0.0 mm 0.00 in0.0 mm
06:10 AM 60.6°F15.9°C 60.3°F15.7°C 99% 5.8 mph N9.3 kmh N 6.9 mph11.1 kmh 31.84 in1078.2 mb - 0.00 in0.0 mm 0.00 in0.0 mm
06:00 AM 60.8°F16.0°C 60.5°F15.8°C 99% 4.6 mph N7.4 kmh N 5.8 mph9.3 kmh 31.84 in1078.2 mb - 0.00 in0.0 mm 0.00 in0.0 mm
05:55 AM 60.8°F16.0°C 60.5°F15.8°C 99% 3.5 mph N5.6 kmh N 4.6 mph7.4 kmh 31.84 in1078.2 mb - 0.00 in0.0 mm 0.00 in0.0 mm
05:50 AM 60.8°F16.0°C 60.5°F15.8°C 99% 4.6 mph N7.4 kmh N 5.8 mph9.3 kmh 31.84 in1078.2 mb - 0.00 in0.0 mm 0.00 in0.0 mm
05:45 AM 60.8°F16.0°C 60.5°F15.8°C 99% 4.6 mph N7.4 kmh N 4.6 mph7.4 kmh 31.84 in1078.2 mb - 0.00 in0.0 mm 0.00 in0.0 mm
05:40 AM 60.8°F16.0°C 60.5°F15.8°C 99% 3.5 mph ENE5.6 kmh ENE 2.3 mph3.7 kmh 31.84 in1078.2 mb - 0.00 in0.0 mm 0.00 in0.0 mm
05:35 AM 60.8°F16.0°C 60.5°F15.8°C 99% 3.5 mph NNE5.6 kmh NNE 4.6 mph7.4 kmh 31.84 in1078.2 mb - 0.00 in0.0 mm 0.00 in0.0 mm
05:30 AM 60.8°F16.0°C 60.5°F15.8°C 99% 3.5 mph N5.6 kmh N 3.5 mph5.6 kmh 31.84 in1078.2 mb - 0.00 in0.0 mm 0.00 in0.0 mm
05:25 AM 60.8°F16.0°C 60.5°F15.8°C 99% 3.5 mph NE5.6 kmh NE 3.5 mph5.6 kmh 31.84 in1078.2 mb - 0.00 in0.0 mm 0.00 in0.0 mm
05:20 AM 61.0°F16.1°C 60.7°F15.9°C 99% 3.5 mph N5.6 kmh N 5.8 mph9.3 kmh 31.84 in1078.2 mb - 0.00 in0.0 mm 0.00 in0.0 mm
05:15 AM 61.0°F16.1°C 60.7°F15.9°C 99% 2.3 mph E3.7 kmh E 2.3 mph3.7 kmh 31.84 in1078.2 mb - 0.00 in0.0 mm 0.00 in0.0 mm
05:10 AM 61.0°F16.1°C 60.7°F15.9°C 99% 3.5 mph NE5.6 kmh NE 3.5 mph5.6 kmh 31.84 in1078.2 mb - 0.00 in0.0 mm 0.00 in0.0 mm
05:00 AM 61.0°F16.1°C 60.7°F15.9°C 99% 3.5 mph N5.6 kmh N 3.5 mph5.6 kmh 31.84 in1078.2 mb - 0.00 in0.0 mm 0.00 in0.0 mm
04:55 AM 61.2°F16.2°C 60.9°F16.1°C 99% 1.2 mph ENE1.9 kmh ENE 2.3 mph3.7 kmh 31.84 in1078.2 mb - 0.00 in0.0 mm 0.00 in0.0 mm
04:50 AM 61.2°F16.2°C 60.9°F16.1°C 99% 3.5 mph NE5.6 kmh NE 4.6 mph7.4 kmh 31.84 in1078.2 mb - 0.00 in0.0 mm 0.00 in0.0 mm
04:45 AM 61.2°F16.2°C 60.9°F16.1°C 99% 4.6 mph N7.4 kmh N 4.6 mph7.4 kmh 31.84 in1078.2 mb - 0.00 in0.0 mm 0.00 in0.0 mm
04:40 AM 61.4°F16.3°C 61.1°F16.2°C 99% 3.5 mph NE5.6 kmh NE 3.5 mph5.6 kmh 31.84 in1078.2 mb - 0.00 in0.0 mm 0.00 in0.0 mm
04:35 AM 61.4°F16.3°C 61.1°F16.2°C 99% 5.8 mph NNE9.3 kmh NNE 6.9 mph11.1 kmh 31.84 in1078.2 mb - 0.00 in0.0 mm 0.00 in0.0 mm
04:30 AM 61.4°F16.3°C 61.2°F16.2°C 99% 8.1 mph N13.0 kmh N 9.2 mph14.8 kmh 31.84 in1078.2 mb - 0.00 in0.0 mm 0.00 in0.0 mm
04:25 AM 61.5°F16.4°C 61.2°F16.2°C 99% 8.1 mph N13.0 kmh N 9.2 mph14.8 kmh 31.84 in1078.2 mb - 0.00 in0.0 mm 0.00 in0.0 mm
04:20 AM 61.5°F16.4°C 61.2°F16.2°C 99% 8.1 mph N13.0 kmh N 9.2 mph14.8 kmh 31.84 in1078.2 mb - 0.00 in0.0 mm 0.00 in0.0 mm
04:15 AM 61.5°F16.4°C 61.2°F16.2°C 99% 9.2 mph N14.8 kmh N 9.2 mph14.8 kmh 31.84 in1078.2 mb - 0.00 in0.0 mm 0.00 in0.0 mm
04:10 AM 61.7°F16.5°C 61.4°F16.3°C 99% 8.1 mph NNE13.0 kmh NNE 9.2 mph14.8 kmh 31.84 in1078.2 mb - 0.00 in0.0 mm 0.00 in0.0 mm
04:00 AM 61.7°F16.5°C 61.4°F16.3°C 99% 5.8 mph NNE9.3 kmh NNE 6.9 mph11.1 kmh 31.84 in1078.2 mb - 0.00 in0.0 mm 0.00 in0.0 mm
03:55 AM 61.7°F16.5°C 61.4°F16.3°C 99% 6.9 mph N11.1 kmh N 9.2 mph14.8 kmh 31.84 in1078.2 mb - 0.00 in0.0 mm 0.00 in0.0 mm
03:50 AM 61.7°F16.5°C 61.4°F16.3°C 99% 8.1 mph NNE13.0 kmh NNE 8.1 mph13.0 kmh 31.84 in1078.2 mb - 0.00 in0.0 mm 0.00 in0.0 mm
03:45 AM 61.5°F16.4°C 61.2°F16.2°C 99% 6.9 mph N11.1 kmh N 8.1 mph13.0 kmh 31.84 in1078.2 mb - 0.00 in0.0 mm 0.00 in0.0 mm
03:40 AM 61.4°F16.3°C 61.1°F16.2°C 99% 5.8 mph 9.3 kmh 5.8 mph9.3 kmh 31.84 in1078.2 mb - 0.00 in0.0 mm 0.00 in0.0 mm
03:35 AM 61.4°F16.3°C 61.1°F16.2°C 99% 3.5 mph N5.6 kmh N 6.9 mph11.1 kmh 31.84 in1078.2 mb - 0.00 in0.0 mm 0.00 in0.0 mm
03:30 AM 61.4°F16.3°C 61.1°F16.2°C 99% 4.6 mph N7.4 kmh N 4.6 mph7.4 kmh 31.84 in1078.2 mb - 0.00 in0.0 mm 0.00 in0.0 mm
03:25 AM 61.5°F16.4°C 61.2°F16.2°C 99% Calm Calm 2.3 mph3.7 kmh 31.84 in1078.2 mb - 0.00 in0.0 mm 0.00 in0.0 mm
03:20 AM 61.5°F16.4°C 61.2°F16.2°C 99% 2.3 mph E3.7 kmh E 3.5 mph5.6 kmh 31.84 in1078.2 mb - 0.00 in0.0 mm 0.00 in0.0 mm
03:15 AM 61.5°F16.4°C 61.2°F16.2°C 99% 1.2 mph SE1.9 kmh SE 1.2 mph1.9 kmh 31.84 in1078.2 mb - 0.00 in0.0 mm 0.00 in0.0 mm
03:10 AM 61.5°F16.4°C 61.2°F16.2°C 99% 1.2 mph SE1.9 kmh SE 2.3 mph3.7 kmh 31.84 in1078.2 mb - 0.00 in0.0 mm 0.00 in0.0 mm
03:00 AM 61.5°F16.4°C 61.2°F16.2°C 99% 1.2 mph SE1.9 kmh SE 1.2 mph1.9 kmh 31.84 in1078.2 mb - 0.00 in0.0 mm 0.00 in0.0 mm
02:55 AM 61.5°F16.4°C 61.2°F16.2°C 99% 1.2 mph SE1.9 kmh SE 1.2 mph1.9 kmh 31.84 in1078.2 mb - 0.00 in0.0 mm 0.00 in0.0 mm
02:50 AM 61.5°F16.4°C 61.2°F16.2°C 99% 1.2 mph SE1.9 kmh SE 2.3 mph3.7 kmh 31.84 in1078.2 mb - 0.00 in0.0 mm 0.00 in0.0 mm
02:45 AM 61.5°F16.4°C 61.2°F16.2°C 99% 2.3 mph E3.7 kmh E 1.2 mph1.9 kmh 31.84 in1078.2 mb - 0.00 in0.0 mm 0.00 in0.0 mm
02:40 AM 61.7°F16.5°C 61.4°F16.3°C 99% 1.2 mph SE1.9 kmh SE 1.2 mph1.9 kmh 31.84 in1078.2 mb - 0.00 in0.0 mm 0.00 in0.0 mm
02:35 AM 61.7°F16.5°C 61.4°F16.3°C 99% 1.2 mph SE1.9 kmh SE 1.2 mph1.9 kmh 31.84 in1078.2 mb - 0.00 in0.0 mm 0.00 in0.0 mm
02:30 AM 61.7°F16.5°C 61.4°F16.3°C 99% 2.3 mph E3.7 kmh E 2.3 mph3.7 kmh 31.84 in1078.2 mb - 0.00 in0.0 mm 0.00 in0.0 mm
02:25 AM 61.7°F16.5°C 61.4°F16.3°C 99% 2.3 mph NE3.7 kmh NE 3.5 mph5.6 kmh 31.84 in1078.2 mb - 0.00 in0.0 mm 0.00 in0.0 mm
02:20 AM 61.7°F16.5°C 61.4°F16.3°C 99% 3.5 mph E5.6 kmh E 3.5 mph5.6 kmh 31.84 in1078.2 mb - 0.00 in0.0 mm 0.00 in0.0 mm
02:15 AM 61.7°F16.5°C 61.4°F16.3°C 99% 2.3 mph ESE3.7 kmh ESE 2.3 mph3.7 kmh 31.84 in1078.2 mb - 0.00 in0.0 mm 0.00 in0.0 mm
02:10 AM 61.7°F16.5°C 61.4°F16.3°C 99% 2.3 mph E3.7 kmh E 2.3 mph3.7 kmh 31.84 in1078.2 mb - 0.00 in0.0 mm 0.00 in0.0 mm
02:00 AM 61.7°F16.5°C 61.4°F16.3°C 99% 4.6 mph N7.4 kmh N 4.6 mph7.4 kmh 31.84 in1078.2 mb - 0.00 in0.0 mm 0.00 in0.0 mm
01:55 AM 61.9°F16.6°C 61.6°F16.4°C 99% 4.6 mph NE7.4 kmh NE 4.6 mph7.4 kmh 31.84 in1078.2 mb - 0.00 in0.0 mm 0.00 in0.0 mm
01:50 AM 61.9°F16.6°C 61.6°F16.4°C 99% 5.8 mph N9.3 kmh N 5.8 mph9.3 kmh 31.84 in1078.2 mb - 0.00 in0.0 mm 0.00 in0.0 mm
01:45 AM 62.2°F16.8°C 62.0°F16.7°C 99% 3.5 mph NNE5.6 kmh NNE 4.6 mph7.4 kmh 31.84 in1078.2 mb - 0.00 in0.0 mm 0.00 in0.0 mm
01:40 AM 62.3°F16.8°C 62.0°F16.7°C 99% 3.5 mph NNE5.6 kmh NNE 3.5 mph5.6 kmh 31.84 in1078.2 mb - 0.00 in0.0 mm 0.00 in0.0 mm
01:35 AM 62.4°F16.9°C 62.1°F16.7°C 99% 3.5 mph N5.6 kmh N 4.6 mph7.4 kmh 31.84 in1078.2 mb - 0.00 in0.0 mm 0.00 in0.0 mm
01:30 AM 62.6°F17.0°C 62.3°F16.8°C 99% 5.8 mph N9.3 kmh N 8.1 mph13.0 kmh 31.84 in1078.2 mb - 0.00 in0.0 mm 0.00 in0.0 mm
01:25 AM 62.6°F17.0°C 62.3°F16.8°C 99% 3.5 mph N5.6 kmh N 4.6 mph7.4 kmh 31.84 in1078.2 mb - 0.00 in0.0 mm 0.00 in0.0 mm
01:20 AM 62.9°F17.2°C 62.6°F17.0°C 99% 2.3 mph ESE3.7 kmh ESE 2.3 mph3.7 kmh 31.84 in1078.2 mb - 0.00 in0.0 mm 0.00 in0.0 mm
01:15 AM 63.0°F17.2°C 62.7°F17.1°C 99% 5.8 mph NNE9.3 kmh NNE 5.8 mph9.3 kmh 31.84 in1078.2 mb - 0.00 in0.0 mm 0.00 in0.0 mm
01:10 AM 63.2°F17.3°C 62.9°F17.2°C 99% 2.3 mph ENE3.7 kmh ENE 3.5 mph5.6 kmh 31.84 in1078.2 mb - 0.00 in0.0 mm 0.00 in0.0 mm
01:00 AM 63.2°F17.3°C 62.9°F17.2°C 99% 1.2 mph SE1.9 kmh SE 1.2 mph1.9 kmh 31.84 in1078.2 mb - 0.00 in0.0 mm 0.00 in0.0 mm
12:55 AM 63.3°F17.4°C 63.0°F17.2°C 99% 2.3 mph SE3.7 kmh SE 2.3 mph3.7 kmh 31.84 in1078.2 mb - 0.00 in0.0 mm 0.00 in0.0 mm
12:50 AM 63.3°F17.4°C 63.0°F17.2°C 99% 2.3 mph ESE3.7 kmh ESE 2.3 mph3.7 kmh 31.84 in1078.2 mb - 0.00 in0.0 mm 0.00 in0.0 mm
12:45 AM 63.3°F17.4°C 63.0°F17.2°C 99% 3.5 mph E5.6 kmh E 3.5 mph5.6 kmh 31.84 in1078.2 mb - 0.00 in0.0 mm 0.00 in0.0 mm
12:40 AM 63.3°F17.4°C 63.0°F17.2°C 99% 3.5 mph NE5.6 kmh NE 4.6 mph7.4 kmh 31.84 in1078.2 mb - 0.00 in0.0 mm 0.00 in0.0 mm
12:35 AM 63.5°F17.5°C 63.2°F17.3°C 99% 3.5 mph NE5.6 kmh NE 4.6 mph7.4 kmh 31.84 in1078.2 mb - 0.00 in0.0 mm 0.00 in0.0 mm
12:30 AM 63.5°F17.5°C 63.2°F17.3°C 99% 3.5 mph NNE5.6 kmh NNE 2.3 mph3.7 kmh 31.84 in1078.2 mb - 0.00 in0.0 mm 0.00 in0.0 mm
12:25 AM 63.5°F17.5°C 63.2°F17.3°C 99% 3.5 mph NE5.6 kmh NE 4.6 mph7.4 kmh 31.84 in1078.2 mb - 0.00 in0.0 mm 0.00 in0.0 mm
12:20 AM 63.5°F17.5°C 63.2°F17.3°C 99% 2.3 mph ESE3.7 kmh ESE 2.3 mph3.7 kmh 31.84 in1078.2 mb - 0.00 in0.0 mm 0.00 in0.0 mm
12:15 AM 63.5°F17.5°C 63.2°F17.3°C 99% 3.5 mph NE5.6 kmh NE 3.5 mph5.6 kmh 31.84 in1078.2 mb - 0.00 in0.0 mm 0.00 in0.0 mm
12:10 AM 63.5°F17.5°C 63.2°F17.3°C 99% 2.3 mph NE3.7 kmh NE 3.5 mph5.6 kmh 31.84 in1078.2 mb - 0.00 in0.0 mm 0.00 in0.0 mm
12:00 AM 63.7°F17.6°C 63.4°F17.4°C 99% 2.3 mph ENE3.7 kmh ENE 2.3 mph3.7 kmh 31.84 in1078.2 mb - 0.00 in0.0 mm 0.00 in0.0 mm